sensor_id;sensor_type;location;lat;lon;timestamp;temperature;humidity
73360;DHT22;63092;43.582;19.528;2022-09-09T00:04:33;21.30;72.70
73360;DHT22;63092;43.582;19.528;2022-09-09T00:15:13;21.00;72.90
73360;DHT22;63092;43.582;19.528;2022-09-09T00:17:53;21.00;72.70
73360;DHT22;63092;43.582;19.528;2022-09-09T00:25:35;20.90;73.40
73360;DHT22;63092;43.582;19.528;2022-09-09T00:28:02;20.90;73.50
73360;DHT22;63092;43.582;19.528;2022-09-09T00:30:31;20.70;74.20
73360;DHT22;63092;43.582;19.528;2022-09-09T00:33:01;20.80;73.70
73360;DHT22;63092;43.582;19.528;2022-09-09T00:35:34;20.80;73.80
73360;DHT22;63092;43.582;19.528;2022-09-09T00:38:12;20.30;75.00
73360;DHT22;63092;43.582;19.528;2022-09-09T00:41:01;20.40;75.20
73360;DHT22;63092;43.582;19.528;2022-09-09T00:48:23;20.30;76.00
73360;DHT22;63092;43.582;19.528;2022-09-09T00:50:53;20.30;76.50
73360;DHT22;63092;43.582;19.528;2022-09-09T00:53:33;20.30;76.50
73360;DHT22;63092;43.582;19.528;2022-09-09T00:56:18;20.30;76.10
73360;DHT22;63092;43.582;19.528;2022-09-09T01:01:32;20.60;75.10
73360;DHT22;63092;43.582;19.528;2022-09-09T01:03:58;20.70;74.70
73360;DHT22;63092;43.582;19.528;2022-09-09T01:11:52;20.90;73.80
73360;DHT22;63092;43.582;19.528;2022-09-09T01:17:19;20.90;73.70
73360;DHT22;63092;43.582;19.528;2022-09-09T01:22:30;20.80;74.00
73360;DHT22;63092;43.582;19.528;2022-09-09T01:27:31;20.60;74.80
73360;DHT22;63092;43.582;19.528;2022-09-09T01:29:57;20.60;75.10
73360;DHT22;63092;43.582;19.528;2022-09-09T01:35:11;20.50;75.80
73360;DHT22;63092;43.582;19.528;2022-09-09T01:37:37;20.60;75.40
73360;DHT22;63092;43.582;19.528;2022-09-09T01:40:03;20.30;75.80
73360;DHT22;63092;43.582;19.528;2022-09-09T01:42:28;20.40;76.00
73360;DHT22;63092;43.582;19.528;2022-09-09T01:44:54;20.20;76.90
73360;DHT22;63092;43.582;19.528;2022-09-09T01:47:20;20.20;77.10
73360;DHT22;63092;43.582;19.528;2022-09-09T01:49:46;20.20;76.90
73360;DHT22;63092;43.582;19.528;2022-09-09T01:52:11;20.30;76.30
73360;DHT22;63092;43.582;19.528;2022-09-09T01:54:37;20.30;77.00
73360;DHT22;63092;43.582;19.528;2022-09-09T01:57:12;20.40;76.80
73360;DHT22;63092;43.582;19.528;2022-09-09T02:02:32;20.60;75.60
73360;DHT22;63092;43.582;19.528;2022-09-09T02:05:11;20.70;74.90
73360;DHT22;63092;43.582;19.528;2022-09-09T02:12:39;20.70;75.10
73360;DHT22;63092;43.582;19.528;2022-09-09T02:15:07;20.80;75.00
73360;DHT22;63092;43.582;19.528;2022-09-09T02:17:36;20.70;75.10
73360;DHT22;63092;43.582;19.528;2022-09-09T02:20:08;20.60;75.30
73360;DHT22;63092;43.582;19.528;2022-09-09T02:22:35;20.60;75.50
73360;DHT22;63092;43.582;19.528;2022-09-09T02:25:05;20.50;75.80
73360;DHT22;63092;43.582;19.528;2022-09-09T02:27:32;20.50;75.70
73360;DHT22;63092;43.582;19.528;2022-09-09T02:29:58;20.50;76.50
73360;DHT22;63092;43.582;19.528;2022-09-09T02:32:25;20.50;75.60
73360;DHT22;63092;43.582;19.528;2022-09-09T02:34:53;20.20;76.90
73360;DHT22;63092;43.582;19.528;2022-09-09T02:37:21;20.10;77.30
73360;DHT22;63092;43.582;19.528;2022-09-09T02:39:48;20.00;77.50
73360;DHT22;63092;43.582;19.528;2022-09-09T02:42:14;20.00;78.00
73360;DHT22;63092;43.582;19.528;2022-09-09T02:44:40;19.90;78.60
73360;DHT22;63092;43.582;19.528;2022-09-09T02:52:17;19.60;80.00
73360;DHT22;63092;43.582;19.528;2022-09-09T02:54:44;19.50;80.60
73360;DHT22;63092;43.582;19.528;2022-09-09T02:57:11;19.60;80.60
73360;DHT22;63092;43.582;19.528;2022-09-09T02:59:37;19.50;80.10
73360;DHT22;63092;43.582;19.528;2022-09-09T03:02:03;19.40;80.60
73360;DHT22;63092;43.582;19.528;2022-09-09T03:04:29;19.40;81.50
73360;DHT22;63092;43.582;19.528;2022-09-09T03:06:56;19.40;82.80
73360;DHT22;63092;43.582;19.528;2022-09-09T03:09:22;19.50;83.20
73360;DHT22;63092;43.582;19.528;2022-09-09T03:11:48;19.70;83.40
73360;DHT22;63092;43.582;19.528;2022-09-09T03:14:14;19.70;81.80
73360;DHT22;63092;43.582;19.528;2022-09-09T03:16:40;19.50;82.50
73360;DHT22;63092;43.582;19.528;2022-09-09T03:19:08;19.50;82.70
73360;DHT22;63092;43.582;19.528;2022-09-09T03:21:33;19.70;83.40
73360;DHT22;63092;43.582;19.528;2022-09-09T03:23:59;19.70;83.10
73360;DHT22;63092;43.582;19.528;2022-09-09T03:26:25;19.70;82.30
73360;DHT22;63092;43.582;19.528;2022-09-09T03:28:50;19.70;82.50
73360;DHT22;63092;43.582;19.528;2022-09-09T03:31:17;19.70;82.70
73360;DHT22;63092;43.582;19.528;2022-09-09T03:33:43;19.70;83.60
73360;DHT22;63092;43.582;19.528;2022-09-09T03:36:09;19.60;84.20
73360;DHT22;63092;43.582;19.528;2022-09-09T03:38:34;19.40;85.00
73360;DHT22;63092;43.582;19.528;2022-09-09T03:41:00;19.50;84.90
73360;DHT22;63092;43.582;19.528;2022-09-09T03:43:27;19.60;84.90
73360;DHT22;63092;43.582;19.528;2022-09-09T03:45:53;19.60;84.90
73360;DHT22;63092;43.582;19.528;2022-09-09T03:48:22;19.60;85.30
73360;DHT22;63092;43.582;19.528;2022-09-09T03:50:49;19.70;85.40
73360;DHT22;63092;43.582;19.528;2022-09-09T03:53:15;19.80;84.60
73360;DHT22;63092;43.582;19.528;2022-09-09T03:55:44;19.70;83.60
73360;DHT22;63092;43.582;19.528;2022-09-09T03:58:11;19.80;83.90
73360;DHT22;63092;43.582;19.528;2022-09-09T04:00:37;19.70;85.00
73360;DHT22;63092;43.582;19.528;2022-09-09T04:03:09;19.80;84.90
73360;DHT22;63092;43.582;19.528;2022-09-09T04:05:35;19.80;84.30
73360;DHT22;63092;43.582;19.528;2022-09-09T04:08:05;19.80;84.80
73360;DHT22;63092;43.582;19.528;2022-09-09T04:10:30;19.80;85.00
73360;DHT22;63092;43.582;19.528;2022-09-09T04:12:56;19.70;85.00
73360;DHT22;63092;43.582;19.528;2022-09-09T04:15:22;19.60;85.00
73360;DHT22;63092;43.582;19.528;2022-09-09T04:17:48;19.70;85.60
73360;DHT22;63092;43.582;19.528;2022-09-09T04:20:13;19.80;85.90
73360;DHT22;63092;43.582;19.528;2022-09-09T04:22:39;19.60;86.50
73360;DHT22;63092;43.582;19.528;2022-09-09T04:25:05;19.60;86.20
73360;DHT22;63092;43.582;19.528;2022-09-09T04:27:31;19.70;86.00
73360;DHT22;63092;43.582;19.528;2022-09-09T04:29:56;19.80;85.30
73360;DHT22;63092;43.582;19.528;2022-09-09T04:32:22;19.90;85.20
73360;DHT22;63092;43.582;19.528;2022-09-09T04:34:48;19.80;85.20
73360;DHT22;63092;43.582;19.528;2022-09-09T04:37:14;19.90;85.30
73360;DHT22;63092;43.582;19.528;2022-09-09T04:39:39;19.80;85.00
73360;DHT22;63092;43.582;19.528;2022-09-09T04:42:05;19.80;85.20
73360;DHT22;63092;43.582;19.528;2022-09-09T04:44:30;19.70;84.80
73360;DHT22;63092;43.582;19.528;2022-09-09T04:46:56;19.60;85.40
73360;DHT22;63092;43.582;19.528;2022-09-09T04:49:22;19.40;86.20
73360;DHT22;63092;43.582;19.528;2022-09-09T04:51:50;19.30;86.00
73360;DHT22;63092;43.582;19.528;2022-09-09T04:54:17;19.20;86.80
73360;DHT22;63092;43.582;19.528;2022-09-09T04:56:42;19.10;87.10
73360;DHT22;63092;43.582;19.528;2022-09-09T04:59:08;19.10;87.60
73360;DHT22;63092;43.582;19.528;2022-09-09T05:01:35;19.20;88.00
73360;DHT22;63092;43.582;19.528;2022-09-09T05:04:01;19.30;87.70
73360;DHT22;63092;43.582;19.528;2022-09-09T05:06:27;19.30;86.90
73360;DHT22;63092;43.582;19.528;2022-09-09T05:08:54;19.40;86.80
73360;DHT22;63092;43.582;19.528;2022-09-09T05:11:20;19.30;86.60
73360;DHT22;63092;43.582;19.528;2022-09-09T05:13:47;19.40;86.30
73360;DHT22;63092;43.582;19.528;2022-09-09T05:16:13;19.40;86.30
73360;DHT22;63092;43.582;19.528;2022-09-09T05:18:39;19.50;86.10
73360;DHT22;63092;43.582;19.528;2022-09-09T05:21:05;19.60;85.80
73360;DHT22;63092;43.582;19.528;2022-09-09T05:23:31;19.70;86.40
73360;DHT22;63092;43.582;19.528;2022-09-09T05:25:58;19.70;85.50
73360;DHT22;63092;43.582;19.528;2022-09-09T05:28:24;19.70;86.10
73360;DHT22;63092;43.582;19.528;2022-09-09T05:30:58;19.80;86.10
73360;DHT22;63092;43.582;19.528;2022-09-09T05:33:24;19.70;86.20
73360;DHT22;63092;43.582;19.528;2022-09-09T05:35:58;19.70;86.20
73360;DHT22;63092;43.582;19.528;2022-09-09T05:38:24;19.70;85.70
73360;DHT22;63092;43.582;19.528;2022-09-09T05:40:50;19.70;86.40
73360;DHT22;63092;43.582;19.528;2022-09-09T05:43:17;19.60;86.30
73360;DHT22;63092;43.582;19.528;2022-09-09T05:45:43;19.40;87.40
73360;DHT22;63092;43.582;19.528;2022-09-09T05:48:09;19.30;87.90
73360;DHT22;63092;43.582;19.528;2022-09-09T05:50:35;19.20;88.50
73360;DHT22;63092;43.582;19.528;2022-09-09T05:53:00;19.30;87.90
73360;DHT22;63092;43.582;19.528;2022-09-09T05:55:26;19.40;86.90
73360;DHT22;63092;43.582;19.528;2022-09-09T05:57:52;19.40;86.20
73360;DHT22;63092;43.582;19.528;2022-09-09T06:00:18;19.40;86.80
73360;DHT22;63092;43.582;19.528;2022-09-09T06:02:49;19.40;86.40
73360;DHT22;63092;43.582;19.528;2022-09-09T06:05:16;19.60;86.00
73360;DHT22;63092;43.582;19.528;2022-09-09T06:07:41;19.70;85.50
73360;DHT22;63092;43.582;19.528;2022-09-09T06:10:08;19.80;85.30
73360;DHT22;63092;43.582;19.528;2022-09-09T06:12:34;19.90;85.00
73360;DHT22;63092;43.582;19.528;2022-09-09T06:15:00;19.90;85.50
73360;DHT22;63092;43.582;19.528;2022-09-09T06:17:25;19.90;85.30
73360;DHT22;63092;43.582;19.528;2022-09-09T06:19:51;20.00;85.50
73360;DHT22;63092;43.582;19.528;2022-09-09T06:22:17;20.00;85.10
73360;DHT22;63092;43.582;19.528;2022-09-09T06:24:43;20.00;85.40
73360;DHT22;63092;43.582;19.528;2022-09-09T06:27:10;20.00;84.60
73360;DHT22;63092;43.582;19.528;2022-09-09T06:29:36;20.00;85.70
73360;DHT22;63092;43.582;19.528;2022-09-09T06:32:02;19.90;85.90
73360;DHT22;63092;43.582;19.528;2022-09-09T06:34:28;19.80;86.60
73360;DHT22;63092;43.582;19.528;2022-09-09T06:36:53;19.80;87.00
73360;DHT22;63092;43.582;19.528;2022-09-09T06:39:19;19.80;87.10
73360;DHT22;63092;43.582;19.528;2022-09-09T06:41:45;19.80;85.70
73360;DHT22;63092;43.582;19.528;2022-09-09T06:44:10;19.80;85.40
73360;DHT22;63092;43.582;19.528;2022-09-09T06:46:38;20.00;86.00
73360;DHT22;63092;43.582;19.528;2022-09-09T06:49:04;20.00;86.30
73360;DHT22;63092;43.582;19.528;2022-09-09T06:51:31;20.10;86.20
73360;DHT22;63092;43.582;19.528;2022-09-09T06:54:00;20.20;85.30
73360;DHT22;63092;43.582;19.528;2022-09-09T06:56:28;20.20;84.70
73360;DHT22;63092;43.582;19.528;2022-09-09T06:58:55;20.20;84.90
73360;DHT22;63092;43.582;19.528;2022-09-09T07:01:22;20.20;84.70
73360;DHT22;63092;43.582;19.528;2022-09-09T07:03:49;20.30;85.50
73360;DHT22;63092;43.582;19.528;2022-09-09T07:06:16;20.30;84.00
73360;DHT22;63092;43.582;19.528;2022-09-09T07:08:48;20.30;84.40
73360;DHT22;63092;43.582;19.528;2022-09-09T07:11:14;20.30;84.00
73360;DHT22;63092;43.582;19.528;2022-09-09T07:13:40;20.40;83.20
73360;DHT22;63092;43.582;19.528;2022-09-09T07:16:06;20.50;82.90
73360;DHT22;63092;43.582;19.528;2022-09-09T07:18:32;20.60;83.80
73360;DHT22;63092;43.582;19.528;2022-09-09T07:20:58;20.70;83.90
73360;DHT22;63092;43.582;19.528;2022-09-09T07:23:24;20.90;83.70
73360;DHT22;63092;43.582;19.528;2022-09-09T07:25:50;20.90;83.50
73360;DHT22;63092;43.582;19.528;2022-09-09T07:28:17;21.10;82.80
73360;DHT22;63092;43.582;19.528;2022-09-09T07:30:42;21.30;82.40
73360;DHT22;63092;43.582;19.528;2022-09-09T07:33:08;21.30;80.70
73360;DHT22;63092;43.582;19.528;2022-09-09T07:35:35;21.40;81.30
73360;DHT22;63092;43.582;19.528;2022-09-09T07:38:02;21.50;81.80
73360;DHT22;63092;43.582;19.528;2022-09-09T07:40:29;21.30;79.10
73360;DHT22;63092;43.582;19.528;2022-09-09T07:42:55;21.20;79.80
73360;DHT22;63092;43.582;19.528;2022-09-09T07:45:21;21.20;80.10
73360;DHT22;63092;43.582;19.528;2022-09-09T07:47:46;21.30;80.80
73360;DHT22;63092;43.582;19.528;2022-09-09T07:50:14;21.40;80.60
73360;DHT22;63092;43.582;19.528;2022-09-09T07:52:40;21.50;80.80
73360;DHT22;63092;43.582;19.528;2022-09-09T07:55:06;21.50;79.10
73360;DHT22;63092;43.582;19.528;2022-09-09T07:57:31;21.70;79.00
73360;DHT22;63092;43.582;19.528;2022-09-09T07:59:57;21.60;78.30
73360;DHT22;63092;43.582;19.528;2022-09-09T08:02:23;21.80;78.70
73360;DHT22;63092;43.582;19.528;2022-09-09T08:04:49;22.00;77.90
73360;DHT22;63092;43.582;19.528;2022-09-09T08:07:14;22.10;78.70
73360;DHT22;63092;43.582;19.528;2022-09-09T08:09:41;22.20;76.90
73360;DHT22;63092;43.582;19.528;2022-09-09T08:12:07;22.30;75.00
73360;DHT22;63092;43.582;19.528;2022-09-09T08:14:33;22.40;75.60
73360;DHT22;63092;43.582;19.528;2022-09-09T08:16:59;22.60;73.70
73360;DHT22;63092;43.582;19.528;2022-09-09T08:19:25;22.70;73.50
73360;DHT22;63092;43.582;19.528;2022-09-09T08:21:50;22.80;73.10
73360;DHT22;63092;43.582;19.528;2022-09-09T08:24:16;22.90;74.00
73360;DHT22;63092;43.582;19.528;2022-09-09T08:26:43;22.70;72.60
73360;DHT22;63092;43.582;19.528;2022-09-09T08:29:09;22.60;72.90
73360;DHT22;63092;43.582;19.528;2022-09-09T08:31:39;22.60;73.50
73360;DHT22;63092;43.582;19.528;2022-09-09T08:34:06;22.60;73.00
73360;DHT22;63092;43.582;19.528;2022-09-09T08:36:33;22.60;71.70
73360;DHT22;63092;43.582;19.528;2022-09-09T08:39:00;22.60;73.00
73360;DHT22;63092;43.582;19.528;2022-09-09T08:51:57;22.40;71.70
73360;DHT22;63092;43.582;19.528;2022-09-09T08:54:23;22.50;72.30
73360;DHT22;63092;43.582;19.528;2022-09-09T08:56:50;22.50;71.80
73360;DHT22;63092;43.582;19.528;2022-09-09T08:59:16;22.60;71.00
73360;DHT22;63092;43.582;19.528;2022-09-09T09:01:49;22.50;70.50
73360;DHT22;63092;43.582;19.528;2022-09-09T09:12:01;22.70;70.80
73360;DHT22;63092;43.582;19.528;2022-09-09T09:14:28;22.70;69.90
73360;DHT22;63092;43.582;19.528;2022-09-09T09:16:59;22.70;69.70
73360;DHT22;63092;43.582;19.528;2022-09-09T09:19:26;22.70;69.80
73360;DHT22;63092;43.582;19.528;2022-09-09T09:21:54;22.70;70.10
73360;DHT22;63092;43.582;19.528;2022-09-09T09:24:29;22.60;70.10
73360;DHT22;63092;43.582;19.528;2022-09-09T09:26:58;22.60;70.00
73360;DHT22;63092;43.582;19.528;2022-09-09T09:29:26;22.50;70.30
73360;DHT22;63092;43.582;19.528;2022-09-09T09:31:52;22.60;69.50
73360;DHT22;63092;43.582;19.528;2022-09-09T09:34:20;22.50;70.30
73360;DHT22;63092;43.582;19.528;2022-09-09T09:39:24;22.60;70.80
73360;DHT22;63092;43.582;19.528;2022-09-09T09:41:50;22.60;69.40
73360;DHT22;63092;43.582;19.528;2022-09-09T09:44:23;22.50;69.50
73360;DHT22;63092;43.582;19.528;2022-09-09T09:46:50;22.60;69.80
73360;DHT22;63092;43.582;19.528;2022-09-09T09:49:15;22.70;69.20
73360;DHT22;63092;43.582;19.528;2022-09-09T09:51:41;22.70;70.80
73360;DHT22;63092;43.582;19.528;2022-09-09T09:56:38;22.90;69.60
73360;DHT22;63092;43.582;19.528;2022-09-09T09:59:04;22.90;71.00
73360;DHT22;63092;43.582;19.528;2022-09-09T10:01:31;22.90;68.40
73360;DHT22;63092;43.582;19.528;2022-09-09T10:04:02;23.00;69.10
73360;DHT22;63092;43.582;19.528;2022-09-09T10:06:35;23.20;68.30
73360;DHT22;63092;43.582;19.528;2022-09-09T10:09:02;23.10;68.20
73360;DHT22;63092;43.582;19.528;2022-09-09T10:11:42;23.30;67.60
73360;DHT22;63092;43.582;19.528;2022-09-09T10:14:18;23.30;67.60
73360;DHT22;63092;43.582;19.528;2022-09-09T10:19:15;23.50;67.80
73360;DHT22;63092;43.582;19.528;2022-09-09T10:36:44;23.70;66.80
73360;DHT22;63092;43.582;19.528;2022-09-09T10:44:24;23.90;65.20
73360;DHT22;63092;43.582;19.528;2022-09-09T10:57:47;24.30;76.90
73360;DHT22;63092;43.582;19.528;2022-09-09T10:59:58;24.50;65.40
73360;DHT22;63092;43.582;19.528;2022-09-09T11:02:28;24.80;63.20
73360;DHT22;63092;43.582;19.528;2022-09-09T11:04:59;25.00;62.60
73360;DHT22;63092;43.582;19.528;2022-09-09T11:07:49;25.20;62.90
73360;DHT22;63092;43.582;19.528;2022-09-09T11:10:16;25.30;61.10
73360;DHT22;63092;43.582;19.528;2022-09-09T11:12:43;25.40;62.10
73360;DHT22;63092;43.582;19.528;2022-09-09T11:17:46;25.70;61.40
73360;DHT22;63092;43.582;19.528;2022-09-09T11:20:14;25.70;60.10
73360;DHT22;63092;43.582;19.528;2022-09-09T11:22:43;25.90;59.90
73360;DHT22;63092;43.582;19.528;2022-09-09T11:30:15;26.00;59.50
73360;DHT22;63092;43.582;19.528;2022-09-09T11:35:26;25.90;60.70
73360;DHT22;63092;43.582;19.528;2022-09-09T11:40:27;26.00;60.20
73360;DHT22;63092;43.582;19.528;2022-09-09T11:45:38;26.20;59.50
73360;DHT22;63092;43.582;19.528;2022-09-09T11:48:04;26.40;60.30
73360;DHT22;63092;43.582;19.528;2022-09-09T11:50:32;26.40;59.70
73360;DHT22;63092;43.582;19.528;2022-09-09T11:53:19;26.40;59.00
73360;DHT22;63092;43.582;19.528;2022-09-09T11:55:59;26.50;59.50
73360;DHT22;63092;43.582;19.528;2022-09-09T11:58:25;26.70;60.00
73360;DHT22;63092;43.582;19.528;2022-09-09T12:08:27;27.40;57.30
73360;DHT22;63092;43.582;19.528;2022-09-09T12:10:58;27.60;58.00
73360;DHT22;63092;43.582;19.528;2022-09-09T12:13:25;27.50;57.40
73360;DHT22;63092;43.582;19.528;2022-09-09T12:15:55;27.70;57.10
73360;DHT22;63092;43.582;19.528;2022-09-09T12:20:53;27.60;56.90
73360;DHT22;63092;43.582;19.528;2022-09-09T12:23:22;27.50;57.00
73360;DHT22;63092;43.582;19.528;2022-09-09T12:26:03;27.30;58.00
73360;DHT22;63092;43.582;19.528;2022-09-09T12:33:34;27.00;57.20
73360;DHT22;63092;43.582;19.528;2022-09-09T12:35:59;27.10;58.30
73360;DHT22;63092;43.582;19.528;2022-09-09T12:38:34;27.00;58.40
73360;DHT22;63092;43.582;19.528;2022-09-09T12:41:00;27.00;59.20
73360;DHT22;63092;43.582;19.528;2022-09-09T12:43:26;27.00;58.80
73360;DHT22;63092;43.582;19.528;2022-09-09T12:45:53;27.00;60.60
73360;DHT22;63092;43.582;19.528;2022-09-09T12:48:34;27.10;58.90
73360;DHT22;63092;43.582;19.528;2022-09-09T12:51:01;27.20;58.60
73360;DHT22;63092;43.582;19.528;2022-09-09T12:53:32;27.20;59.10
73360;DHT22;63092;43.582;19.528;2022-09-09T12:56:00;27.10;59.10
73360;DHT22;63092;43.582;19.528;2022-09-09T12:58:28;27.00;59.10
73360;DHT22;63092;43.582;19.528;2022-09-09T13:01:00;26.80;58.80
73360;DHT22;63092;43.582;19.528;2022-09-09T13:03:26;26.70;59.20
73360;DHT22;63092;43.582;19.528;2022-09-09T13:05:52;26.70;60.10
73360;DHT22;63092;43.582;19.528;2022-09-09T13:11:01;26.70;93.40
73360;DHT22;63092;43.582;19.528;2022-09-09T13:13:29;26.30;60.40
73360;DHT22;63092;43.582;19.528;2022-09-09T13:15:57;26.30;60.90
73360;DHT22;63092;43.582;19.528;2022-09-09T13:18:24;26.30;61.00
73360;DHT22;63092;43.582;19.528;2022-09-09T13:20:50;26.30;61.60
73360;DHT22;63092;43.582;19.528;2022-09-09T13:23:17;26.20;62.00
73360;DHT22;63092;43.582;19.528;2022-09-09T13:25:58;26.10;62.00
73360;DHT22;63092;43.582;19.528;2022-09-09T13:28:24;26.00;62.00
73360;DHT22;63092;43.582;19.528;2022-09-09T13:30:57;26.00;63.00
73360;DHT22;63092;43.582;19.528;2022-09-09T13:33:29;26.00;63.00
73360;DHT22;63092;43.582;19.528;2022-09-09T13:35:55;26.00;63.60
73360;DHT22;63092;43.582;19.528;2022-09-09T13:38:22;25.90;66.40
73360;DHT22;63092;43.582;19.528;2022-09-09T13:40:57;25.70;65.90
73360;DHT22;63092;43.582;19.528;2022-09-09T13:43:26;25.60;73.70
73360;DHT22;63092;43.582;19.528;2022-09-09T13:45:53;25.20;75.90
73360;DHT22;63092;43.582;19.528;2022-09-09T13:48:19;24.70;77.70
73360;DHT22;63092;43.582;19.528;2022-09-09T13:50:53;24.40;78.90
73360;DHT22;63092;43.582;19.528;2022-09-09T13:53:19;24.20;80.80
73360;DHT22;63092;43.582;19.528;2022-09-09T13:55:44;24.00;81.20
73360;DHT22;63092;43.582;19.528;2022-09-09T13:58:14;23.80;82.00
73360;DHT22;63092;43.582;19.528;2022-09-09T14:00:40;23.70;82.10
73360;DHT22;63092;43.582;19.528;2022-09-09T14:03:06;23.60;83.40
73360;DHT22;63092;43.582;19.528;2022-09-09T14:05:33;23.50;84.50
73360;DHT22;63092;43.582;19.528;2022-09-09T14:07:59;23.50;84.50
73360;DHT22;63092;43.582;19.528;2022-09-09T14:10:26;23.60;84.40
73360;DHT22;63092;43.582;19.528;2022-09-09T14:12:51;23.70;84.90
73360;DHT22;63092;43.582;19.528;2022-09-09T14:15:18;23.90;84.60
73360;DHT22;63092;43.582;19.528;2022-09-09T14:17:45;23.90;83.80
73360;DHT22;63092;43.582;19.528;2022-09-09T14:20:10;24.10;83.50
73360;DHT22;63092;43.582;19.528;2022-09-09T14:22:37;24.10;83.10
73360;DHT22;63092;43.582;19.528;2022-09-09T14:25:04;24.20;81.50
73360;DHT22;63092;43.582;19.528;2022-09-09T14:27:31;24.10;82.60
73360;DHT22;63092;43.582;19.528;2022-09-09T14:29:58;24.10;84.60
73360;DHT22;63092;43.582;19.528;2022-09-09T14:32:25;23.90;85.50
73360;DHT22;63092;43.582;19.528;2022-09-09T14:34:50;24.00;85.30
73360;DHT22;63092;43.582;19.528;2022-09-09T14:37:16;24.10;85.90
73360;DHT22;63092;43.582;19.528;2022-09-09T14:39:42;24.10;85.10
73360;DHT22;63092;43.582;19.528;2022-09-09T14:42:12;24.40;84.30
73360;DHT22;63092;43.582;19.528;2022-09-09T14:44:38;24.50;83.60
73360;DHT22;63092;43.582;19.528;2022-09-09T14:47:04;24.50;83.60
73360;DHT22;63092;43.582;19.528;2022-09-09T14:49:30;24.50;82.30
73360;DHT22;63092;43.582;19.528;2022-09-09T14:51:56;24.40;82.90
73360;DHT22;63092;43.582;19.528;2022-09-09T14:54:22;24.40;83.40
73360;DHT22;63092;43.582;19.528;2022-09-09T14:56:48;23.90;79.60
73360;DHT22;63092;43.582;19.528;2022-09-09T14:59:13;23.70;76.30
73360;DHT22;63092;43.582;19.528;2022-09-09T15:01:39;23.30;75.30
73360;DHT22;63092;43.582;19.528;2022-09-09T15:04:05;23.20;75.60
73360;DHT22;63092;43.582;19.528;2022-09-09T15:06:32;22.90;75.80
73360;DHT22;63092;43.582;19.528;2022-09-09T15:08:58;22.60;76.70
73360;DHT22;63092;43.582;19.528;2022-09-09T15:11:28;22.60;76.70
73360;DHT22;63092;43.582;19.528;2022-09-09T15:13:56;22.60;77.20
73360;DHT22;63092;43.582;19.528;2022-09-09T15:16:23;22.70;77.30
73360;DHT22;63092;43.582;19.528;2022-09-09T15:18:51;22.80;78.10
73360;DHT22;63092;43.582;19.528;2022-09-09T15:21:17;22.80;76.90
73360;DHT22;63092;43.582;19.528;2022-09-09T15:23:44;22.90;76.20
73360;DHT22;63092;43.582;19.528;2022-09-09T15:26:11;22.80;76.00
73360;DHT22;63092;43.582;19.528;2022-09-09T15:28:37;22.70;75.70
73360;DHT22;63092;43.582;19.528;2022-09-09T15:31:08;22.60;75.90
73360;DHT22;63092;43.582;19.528;2022-09-09T15:33:34;22.50;76.00
73360;DHT22;63092;43.582;19.528;2022-09-09T15:36:12;22.50;76.50
73360;DHT22;63092;43.582;19.528;2022-09-09T15:38:38;22.60;76.90
73360;DHT22;63092;43.582;19.528;2022-09-09T15:41:03;22.60;77.20
73360;DHT22;63092;43.582;19.528;2022-09-09T15:43:29;22.70;77.10
73360;DHT22;63092;43.582;19.528;2022-09-09T15:45:57;22.70;77.40
73360;DHT22;63092;43.582;19.528;2022-09-09T15:48:29;22.70;77.40
73360;DHT22;63092;43.582;19.528;2022-09-09T15:51:04;22.60;76.80
73360;DHT22;63092;43.582;19.528;2022-09-09T15:53:31;22.80;77.20
73360;DHT22;63092;43.582;19.528;2022-09-09T15:55:59;23.00;76.10
73360;DHT22;63092;43.582;19.528;2022-09-09T15:58:25;23.00;76.50
73360;DHT22;63092;43.582;19.528;2022-09-09T16:00:51;22.90;76.80
73360;DHT22;63092;43.582;19.528;2022-09-09T16:03:16;23.00;77.20
73360;DHT22;63092;43.582;19.528;2022-09-09T16:05:42;22.80;77.80
73360;DHT22;63092;43.582;19.528;2022-09-09T16:08:08;22.70;77.80
73360;DHT22;63092;43.582;19.528;2022-09-09T16:10:34;22.70;78.40
73360;DHT22;63092;43.582;19.528;2022-09-09T16:12:59;22.70;79.00
73360;DHT22;63092;43.582;19.528;2022-09-09T16:15:25;22.70;78.90
73360;DHT22;63092;43.582;19.528;2022-09-09T16:17:53;22.60;79.20
73360;DHT22;63092;43.582;19.528;2022-09-09T16:20:18;22.60;79.80
73360;DHT22;63092;43.582;19.528;2022-09-09T16:22:44;22.50;79.50
73360;DHT22;63092;43.582;19.528;2022-09-09T16:25:10;22.50;80.10
73360;DHT22;63092;43.582;19.528;2022-09-09T16:27:35;22.50;80.10
73360;DHT22;63092;43.582;19.528;2022-09-09T16:30:01;22.60;80.00
73360;DHT22;63092;43.582;19.528;2022-09-09T16:32:27;22.60;80.10
73360;DHT22;63092;43.582;19.528;2022-09-09T16:34:52;22.70;80.30
73360;DHT22;63092;43.582;19.528;2022-09-09T16:37:18;22.80;80.40
73360;DHT22;63092;43.582;19.528;2022-09-09T16:39:44;22.90;80.10
73360;DHT22;63092;43.582;19.528;2022-09-09T16:42:10;22.80;81.00
73360;DHT22;63092;43.582;19.528;2022-09-09T16:44:35;22.90;80.30
73360;DHT22;63092;43.582;19.528;2022-09-09T16:47:01;22.90;80.60
73360;DHT22;63092;43.582;19.528;2022-09-09T16:49:27;22.80;81.80
73360;DHT22;63092;43.582;19.528;2022-09-09T16:51:53;22.80;81.00
73360;DHT22;63092;43.582;19.528;2022-09-09T16:54:22;22.70;80.50
73360;DHT22;63092;43.582;19.528;2022-09-09T16:56:52;22.80;80.40
73360;DHT22;63092;43.582;19.528;2022-09-09T16:59:18;22.90;80.70
73360;DHT22;63092;43.582;19.528;2022-09-09T17:01:44;22.90;82.00
73360;DHT22;63092;43.582;19.528;2022-09-09T17:04:12;22.80;81.50
73360;DHT22;63092;43.582;19.528;2022-09-09T17:06:39;22.50;82.10
73360;DHT22;63092;43.582;19.528;2022-09-09T17:09:10;22.50;81.70
73360;DHT22;63092;43.582;19.528;2022-09-09T17:11:36;22.50;81.80
73360;DHT22;63092;43.582;19.528;2022-09-09T17:14:02;22.50;81.80
73360;DHT22;63092;43.582;19.528;2022-09-09T17:16:29;22.60;82.00
73360;DHT22;63092;43.582;19.528;2022-09-09T17:18:55;22.50;82.00
73360;DHT22;63092;43.582;19.528;2022-09-09T17:21:22;22.30;82.30
73360;DHT22;63092;43.582;19.528;2022-09-09T17:23:48;22.20;82.80
73360;DHT22;63092;43.582;19.528;2022-09-09T17:26:15;22.20;82.90
73360;DHT22;63092;43.582;19.528;2022-09-09T17:28:42;22.20;82.90
73360;DHT22;63092;43.582;19.528;2022-09-09T17:31:09;22.10;83.10
73360;DHT22;63092;43.582;19.528;2022-09-09T17:33:35;22.20;83.10
73360;DHT22;63092;43.582;19.528;2022-09-09T17:36:02;22.10;83.60
73360;DHT22;63092;43.582;19.528;2022-09-09T17:38:28;22.10;83.40
73360;DHT22;63092;43.582;19.528;2022-09-09T17:41:13;22.10;83.00